createdAt,value
2023-04-23T00:00:43.886Z,100152.59
2023-04-23T00:03:14.930Z,100149.16
2023-04-23T00:05:44.749Z,100133.25
2023-04-23T00:08:12.725Z,100132.44
2023-04-23T00:10:40.716Z,100133.31
2023-04-23T00:13:10.108Z,100133.25
2023-04-23T00:15:38.225Z,100138.66
2023-04-23T00:18:06.117Z,100129.84
2023-04-23T00:20:35.507Z,100127.06
2023-04-23T00:23:02.997Z,100127.94
2023-04-23T00:25:30.612Z,100130.78
2023-04-23T00:27:58.228Z,100136.09
2023-04-23T00:30:25.831Z,100122.91
2023-04-23T00:32:53.259Z,100109.97
2023-04-23T00:35:21.125Z,100097.63
2023-04-23T00:37:48.680Z,100082.81
2023-04-23T00:40:16.207Z,100079.53
2023-04-23T00:42:45.003Z,100095.38
2023-04-23T00:45:12.710Z,100080.59
2023-04-23T00:47:41.187Z,100070.19
2023-04-23T00:50:08.946Z,100079.72
2023-04-23T00:52:36.612Z,100081.41
2023-04-23T00:55:04.980Z,100077.88
2023-04-23T00:57:32.982Z,100069.97
2023-04-23T01:00:00.979Z,100064.75
2023-04-23T01:02:30.963Z,100067.47
2023-04-23T01:05:00.912Z,100064.84
2023-04-23T01:07:28.865Z,100051.84
2023-04-23T01:09:56.616Z,100058.72
2023-04-23T01:12:24.116Z,100051.81
2023-04-23T01:14:52.151Z,100048.31
2023-04-23T01:17:19.620Z,100041.31
2023-04-23T01:19:47.212Z,100040.25
2023-04-23T01:22:16.594Z,100027.09
2023-04-23T01:24:44.245Z,100027.09
2023-04-23T01:27:12.250Z,100026.94
2023-04-23T01:29:40.636Z,100023.50
2023-04-23T01:32:08.851Z,100014.84
2023-04-23T01:34:39.679Z,100005.81
2023-04-23T01:37:07.866Z,100005.06
2023-04-23T01:39:37.140Z,99998.97
2023-04-23T01:42:07.306Z,99991.00
2023-04-23T01:44:34.794Z,99991.03
2023-04-23T01:47:03.116Z,99973.75
2023-04-23T01:49:32.575Z,99960.78
2023-04-23T01:52:00.080Z,99963.44
2023-04-23T01:54:27.660Z,99964.31
2023-04-23T01:56:55.952Z,99958.25
2023-04-23T01:59:23.837Z,99955.53
2023-04-23T02:01:51.547Z,99958.09
2023-04-23T02:04:19.822Z,99943.34
2023-04-23T02:06:51.205Z,99946.84
2023-04-23T02:09:18.797Z,99949.38
2023-04-23T02:11:47.291Z,99946.84
2023-04-23T02:14:15.198Z,99943.38
2023-04-23T02:16:42.704Z,99942.56
2023-04-23T02:19:10.279Z,99938.97
2023-04-23T02:21:37.637Z,99944.22
2023-04-23T02:24:05.556Z,99938.91
2023-04-23T02:26:33.265Z,99941.53
2023-04-23T02:29:00.757Z,99935.44
2023-04-23T02:31:28.234Z,99938.94
2023-04-23T02:33:55.780Z,99937.19
2023-04-23T02:36:23.237Z,99938.72
2023-04-23T02:38:51.339Z,99926.69
2023-04-23T02:41:18.974Z,99931.00
2023-04-23T02:43:46.994Z,99929.41
2023-04-23T02:46:14.663Z,99912.81
2023-04-23T02:48:42.511Z,99913.69
2023-04-23T02:51:12.381Z,99911.78
2023-04-23T02:53:40.011Z,99910.97
2023-04-23T02:56:07.879Z,99905.69
2023-04-23T02:58:35.831Z,99913.59
2023-04-23T03:01:03.594Z,99908.66
2023-04-23T03:03:32.657Z,99888.53
2023-04-23T03:06:02.997Z,99896.41
2023-04-23T03:08:30.647Z,99896.59
2023-04-23T03:10:58.380Z,99888.88
2023-04-23T03:13:27.076Z,99889.66
2023-04-23T03:15:56.482Z,99896.69
2023-04-23T03:18:24.229Z,99894.19
2023-04-23T03:20:54.229Z,99883.66
2023-04-23T03:23:21.767Z,99887.16
2023-04-23T03:25:49.824Z,99892.47
2023-04-23T03:28:17.380Z,99888.13
2023-04-23T03:30:45.540Z,99877.69
2023-04-23T03:33:13.025Z,99879.41
2023-04-23T03:35:41.029Z,99869.84
2023-04-23T03:38:13.712Z,99859.25
2023-04-23T03:40:41.916Z,99854.00
2023-04-23T03:43:11.021Z,99855.91
2023-04-23T03:46:00.799Z,99854.91
2023-04-23T03:48:30.047Z,99847.25
2023-04-23T03:50:58.263Z,99846.41
2023-04-23T03:53:35.398Z,99849.84
2023-04-23T03:56:32.232Z,99833.22
2023-04-23T03:59:14.689Z,99832.44
2023-04-23T04:01:43.949Z,99831.50
2023-04-23T04:04:11.893Z,99823.59
2023-04-23T04:06:39.703Z,99813.19
2023-04-23T04:09:09.916Z,99819.16
2023-04-23T04:11:37.492Z,99802.38
2023-04-23T04:14:05.077Z,99794.69
2023-04-23T04:16:32.685Z,99793.69
2023-04-23T04:19:01.540Z,99796.19
2023-04-23T04:21:29.107Z,99798.75
2023-04-23T04:23:57.090Z,99784.84
2023-04-23T04:26:25.446Z,99788.31
2023-04-23T04:28:53.425Z,99781.44
2023-04-23T04:31:22.175Z,99771.03
2023-04-23T04:33:49.718Z,99750.19
2023-04-23T04:36:18.293Z,99737.13
2023-04-23T04:38:45.711Z,99736.28
2023-04-23T04:41:13.772Z,99731.91
2023-04-23T04:43:41.550Z,99724.00
2023-04-23T04:46:11.773Z,99717.91
2023-04-23T04:48:39.377Z,99711.66
2023-04-23T04:51:07.233Z,99706.47
2023-04-23T04:53:36.193Z,99698.59
2023-04-23T04:56:04.097Z,99689.31
2023-04-23T04:58:31.985Z,99683.09
2023-04-23T05:01:00.402Z,99670.81
2023-04-23T05:03:28.218Z,99667.34
2023-04-23T05:05:56.544Z,99673.47
2023-04-23T05:08:24.435Z,99661.25
2023-04-23T05:10:52.241Z,99665.63
2023-04-23T05:13:19.802Z,99658.63
2023-04-23T05:15:47.368Z,99640.31
2023-04-23T05:18:14.670Z,99629.91
2023-04-23T05:20:43.048Z,99631.56
2023-04-23T05:23:10.478Z,99625.50
2023-04-23T05:25:38.232Z,99619.63
2023-04-23T05:28:05.722Z,99600.31
2023-04-23T05:30:33.220Z,99598.53
2023-04-23T05:33:00.766Z,99589.94
2023-04-23T05:35:28.454Z,99586.50
2023-04-23T05:37:56.838Z,99582.31
2023-04-23T05:40:24.372Z,99570.28
2023-04-23T05:42:51.833Z,99566.88
2023-04-23T05:45:19.288Z,99569.34
2023-04-23T05:47:46.799Z,99560.69
2023-04-23T05:50:14.404Z,99545.00
2023-04-23T05:52:41.941Z,99533.00
2023-04-23T05:55:10.327Z,99518.22
2023-04-23T05:57:38.677Z,99502.50
2023-04-23T06:00:09.912Z,99488.59
2023-04-23T06:02:41.919Z,99460.69
2023-04-23T06:05:10.576Z,99439.84
2023-04-23T06:07:38.394Z,99430.38
2023-04-23T06:10:06.830Z,99427.78
2023-04-23T06:12:34.239Z,99413.84
2023-04-23T06:15:01.870Z,99405.94
2023-04-23T06:17:29.356Z,99387.91
2023-04-23T06:19:57.109Z,99377.22
2023-04-23T06:22:25.704Z,99359.00
2023-04-23T06:24:53.175Z,99354.75
2023-04-23T06:27:20.423Z,99362.59
2023-04-23T06:29:50.828Z,99360.03
2023-04-23T06:32:20.508Z,99356.44
2023-04-23T06:35:00.189Z,99354.69
2023-04-23T06:37:30.923Z,99351.31
2023-04-23T06:39:59.367Z,99352.09
2023-04-23T06:42:26.995Z,99332.03
2023-04-23T06:45:17.342Z,99329.44
2023-04-23T06:47:45.313Z,99326.66
2023-04-23T06:50:12.844Z,99321.31
2023-04-23T06:52:40.545Z,99308.16
2023-04-23T06:55:08.721Z,99312.50
2023-04-23T06:57:36.324Z,99313.31
2023-04-23T07:00:06.703Z,99323.91
2023-04-23T07:02:38.116Z,99353.44
2023-04-23T07:05:05.908Z,99372.50
2023-04-23T07:07:37.607Z,99367.22
2023-04-23T07:10:06.191Z,99376.84
2023-04-23T07:12:33.634Z,99385.47
2023-04-23T07:15:01.250Z,99419.56
2023-04-23T07:17:28.688Z,99435.19
2023-04-23T07:19:56.169Z,99449.00
2023-04-23T07:22:24.217Z,99457.94
2023-04-23T07:24:52.986Z,99467.47
2023-04-23T07:27:21.259Z,99470.22
2023-04-23T07:29:49.658Z,99477.88
2023-04-23T07:32:17.400Z,99467.28
2023-04-23T07:34:45.130Z,99463.94
2023-04-23T07:37:12.713Z,99464.88
2023-04-23T07:39:42.599Z,99461.16
2023-04-23T07:42:11.680Z,99479.75
2023-04-23T07:44:39.106Z,99480.44
2023-04-23T07:47:06.994Z,99496.59
2023-04-23T07:49:34.753Z,99509.50
2023-04-23T07:52:02.265Z,99518.16
2023-04-23T07:54:29.692Z,99535.63
2023-04-23T07:56:57.541Z,99560.97
2023-04-23T07:59:24.930Z,99552.34
2023-04-23T08:01:52.821Z,99556.53
2023-04-23T08:04:20.812Z,99589.41
2023-04-23T08:06:48.619Z,99605.44
2023-04-23T08:09:16.017Z,99617.81
2023-04-23T08:11:43.651Z,99629.91
2023-04-23T08:14:11.365Z,99630.22
2023-04-23T08:16:39.220Z,99648.91
2023-04-23T08:19:07.066Z,99653.50
2023-04-23T08:21:36.288Z,99659.03
2023-04-23T08:24:04.436Z,99663.59
2023-04-23T08:26:32.120Z,99683.38
2023-04-23T08:29:01.022Z,99688.59
2023-04-23T08:31:28.785Z,99689.63
2023-04-23T08:33:56.633Z,99692.78
2023-04-23T08:36:24.796Z,99704.44
2023-04-23T08:38:52.238Z,99699.78
2023-04-23T08:41:24.120Z,99707.09
2023-04-23T08:43:58.663Z,99710.13
2023-04-23T08:46:32.092Z,99720.06
2023-04-23T08:49:01.086Z,99722.06
2023-04-23T08:51:31.063Z,99726.34
2023-04-23T08:54:02.660Z,99726.56
2023-04-23T08:56:31.240Z,99728.63
2023-04-23T08:58:58.929Z,99723.03
2023-04-23T09:01:30.333Z,99725.19
2023-04-23T09:03:58.454Z,99735.00
2023-04-23T09:06:26.548Z,99740.31
2023-04-23T09:08:55.499Z,99747.38
2023-04-23T09:11:24.294Z,99747.50
2023-04-23T09:13:52.022Z,99751.16
2023-04-23T09:16:19.461Z,99744.84
2023-04-23T09:18:47.119Z,99752.72
2023-04-23T09:21:14.471Z,99747.41
2023-04-23T09:23:43.255Z,99754.28
2023-04-23T09:26:10.646Z,99744.47
2023-04-23T09:28:38.589Z,99751.47
2023-04-23T09:31:06.480Z,99755.25
2023-04-23T09:33:36.969Z,99751.25
2023-04-23T09:36:13.881Z,99767.34
2023-04-23T09:38:41.771Z,99767.13
2023-04-23T09:41:26.129Z,99774.66
2023-04-23T09:43:55.176Z,99783.13
2023-04-23T09:46:43.086Z,99792.25
2023-04-23T09:49:12.532Z,99792.25
2023-04-23T09:51:41.643Z,99792.88
2023-04-23T09:54:16.469Z,99793.97
2023-04-23T09:56:44.589Z,99804.13
2023-04-23T09:59:47.106Z,99807.56
2023-04-23T10:02:19.016Z,99811.78
2023-04-23T10:04:56.293Z,99807.59
2023-04-23T10:07:29.564Z,99815.28
2023-04-23T10:09:57.126Z,99810.56
2023-04-23T10:14:57.539Z,99813.78
2023-04-23T10:17:25.101Z,99811.72
2023-04-23T10:19:52.547Z,99814.38
2023-04-23T10:22:22.078Z,99805.88
2023-04-23T10:24:56.420Z,99809.00
2023-04-23T10:27:44.140Z,99810.84
2023-04-23T10:30:16.202Z,99806.19
2023-04-23T10:32:45.328Z,99804.84
2023-04-23T10:35:12.985Z,99813.09
2023-04-23T10:37:41.797Z,99815.88
2023-04-23T10:40:14.801Z,99810.03
2023-04-23T10:42:44.972Z,99821.19
2023-04-23T10:47:57.369Z,99810.81
2023-04-23T10:50:30.400Z,99819.16
2023-04-23T10:52:58.859Z,99812.72
2023-04-23T10:55:28.633Z,99822.84
2023-04-23T10:58:07.620Z,99817.00
2023-04-23T11:00:41.281Z,99812.69
2023-04-23T11:03:32.906Z,99809.84
2023-04-23T11:06:05.030Z,99813.56
2023-04-23T11:08:35.126Z,99812.16
2023-04-23T11:11:07.565Z,99817.13
2023-04-23T11:13:35.208Z,99816.47
2023-04-23T11:16:22.898Z,99830.91
2023-04-23T11:18:57.619Z,99822.00
2023-04-23T11:21:56.251Z,99834.56
2023-04-23T11:24:24.877Z,99831.22
2023-04-23T11:26:56.197Z,99839.03
2023-04-23T11:29:26.395Z,99834.13
2023-04-23T11:32:02.714Z,99842.19
2023-04-23T11:34:33.057Z,99846.69
2023-04-23T11:37:01.403Z,99841.53
2023-04-23T11:39:28.970Z,99838.81
2023-04-23T11:41:57.918Z,99841.06
2023-04-23T11:44:25.600Z,99837.25
2023-04-23T11:46:53.119Z,99842.47
2023-04-23T11:49:21.836Z,99843.75
2023-04-23T11:51:49.537Z,99841.91
2023-04-23T11:54:17.050Z,99849.53
2023-04-23T11:56:45.014Z,99858.19
2023-04-23T11:59:12.454Z,99858.00
2023-04-23T12:01:42.453Z,99856.28
2023-04-23T12:04:16.700Z,99860.69
2023-04-23T12:06:46.964Z,99876.66
2023-04-23T12:09:15.989Z,99907.00
2023-04-23T12:11:44.757Z,99907.19
2023-04-23T12:14:13.958Z,99921.09
2023-04-23T12:16:45.841Z,99930.84
2023-04-23T12:19:15.646Z,99932.06
2023-04-23T12:21:56.587Z,99934.97
2023-04-23T12:24:29.165Z,99932.72
2023-04-23T12:27:00.884Z,99937.03
2023-04-23T12:29:31.316Z,99921.03
2023-04-23T12:32:00.535Z,99922.41
2023-04-23T12:34:28.027Z,99926.25
2023-04-23T12:36:57.853Z,99930.19
2023-04-23T12:39:37.267Z,99920.13
2023-04-23T12:42:06.984Z,99920.69
2023-04-23T12:44:36.522Z,99926.53
2023-04-23T12:47:07.561Z,99924.59
2023-04-23T12:49:36.779Z,99931.38
2023-04-23T12:52:06.352Z,99929.22
2023-04-23T12:54:37.541Z,99943.94
2023-04-23T12:57:11.671Z,99945.88
2023-04-23T12:59:39.328Z,99942.88
2023-04-23T13:02:07.414Z,99945.63
2023-04-23T13:04:36.526Z,99948.34
2023-04-23T13:07:04.586Z,99953.25
2023-04-23T13:09:32.236Z,99960.63
2023-04-23T13:12:00.565Z,99945.50
2023-04-23T13:14:28.641Z,99954.00
2023-04-23T13:16:58.046Z,99950.09
2023-04-23T13:19:26.483Z,99952.63
2023-04-23T13:21:53.974Z,99956.66
2023-04-23T13:24:21.665Z,99954.41
2023-04-23T13:26:49.379Z,99965.69
2023-04-23T13:29:17.001Z,99967.19
2023-04-23T13:31:44.498Z,99962.75
2023-04-23T13:34:12.090Z,99957.88
2023-04-23T13:36:41.703Z,99966.91
2023-04-23T13:39:11.085Z,99972.59
2023-04-23T13:41:38.594Z,99963.41
2023-04-23T13:44:06.540Z,99968.91
2023-04-23T13:46:34.034Z,99965.13
2023-04-23T13:49:01.602Z,99969.13
2023-04-23T13:51:35.364Z,99971.25
2023-04-23T13:54:03.691Z,99971.31
2023-04-23T13:56:31.865Z,99971.94
2023-04-23T13:59:17.476Z,99970.25
2023-04-23T14:01:50.295Z,99987.38
2023-04-23T14:04:19.072Z,99998.31
2023-04-23T14:06:46.654Z,99991.91
2023-04-23T14:09:14.303Z,99998.50
2023-04-23T14:11:41.907Z,99992.22
2023-04-23T14:14:09.472Z,100001.69
2023-04-23T14:16:36.884Z,99999.69
2023-04-23T14:19:04.405Z,100002.19
2023-04-23T14:21:32.278Z,99986.28
2023-04-23T14:24:10.373Z,99986.22
2023-04-23T14:26:48.038Z,99980.38
2023-04-23T14:29:29.078Z,99983.41
2023-04-23T14:31:56.837Z,99991.63
2023-04-23T14:34:24.284Z,99980.97
2023-04-23T14:36:53.384Z,99990.72
2023-04-23T14:39:23.502Z,99991.84
2023-04-23T14:41:50.962Z,99994.47
2023-04-23T14:44:18.698Z,99988.34
2023-04-23T14:46:46.430Z,99993.03
2023-04-23T14:49:14.362Z,100013.53
2023-04-23T14:51:42.206Z,100012.22
2023-04-23T14:54:10.393Z,100018.59
2023-04-23T14:56:38.119Z,100024.16
2023-04-23T14:59:05.666Z,100032.41
2023-04-23T15:01:33.233Z,100037.66
2023-04-23T15:04:00.979Z,100050.50
2023-04-23T15:06:28.663Z,100051.81
2023-04-23T15:08:56.115Z,100066.13
2023-04-23T15:11:23.678Z,100064.50
2023-04-23T15:14:20.947Z,100061.97
2023-04-23T15:16:49.704Z,100070.63
2023-04-23T15:19:18.367Z,100081.03
2023-04-23T15:21:47.318Z,100078.28
2023-04-23T15:24:16.855Z,100082.34
2023-04-23T15:26:46.069Z,100074.13
2023-04-23T15:29:13.956Z,100079.03
2023-04-23T15:31:41.990Z,100072.56
2023-04-23T15:34:09.897Z,100083.63
2023-04-23T15:36:38.208Z,100078.06
2023-04-23T15:39:07.219Z,100086.66
2023-04-23T15:41:39.496Z,100091.28
2023-04-23T15:44:11.373Z,100088.66
2023-04-23T15:46:38.876Z,100094.84
2023-04-23T15:49:06.359Z,100100.19
2023-04-23T15:51:33.891Z,100100.25
2023-04-23T15:54:02.262Z,100107.78
2023-04-23T15:56:29.866Z,100110.88
2023-04-23T15:58:57.312Z,100108.63
2023-04-23T16:01:27.141Z,100108.81
2023-04-23T16:04:09.737Z,100119.69
2023-04-23T16:06:38.995Z,100111.03
2023-04-23T16:09:09.342Z,100119.44
2023-04-23T16:11:38.187Z,100122.06
2023-04-23T16:14:06.388Z,100126.97
2023-04-23T16:16:33.985Z,100123.47
2023-04-23T16:19:02.957Z,100119.06
2023-04-23T16:21:32.267Z,100119.81
2023-04-23T16:23:59.914Z,100126.47
2023-04-23T16:26:29.128Z,100121.78
2023-04-23T16:29:16.790Z,100114.50
2023-04-23T16:31:44.623Z,100125.16
2023-04-23T16:34:12.113Z,100130.34
2023-04-23T16:36:39.816Z,100132.09
2023-04-23T16:39:07.300Z,100130.41
2023-04-23T16:41:34.824Z,100121.53
2023-04-23T16:44:02.227Z,100123.34
2023-04-23T16:46:31.460Z,100123.38
2023-04-23T16:48:59.891Z,100118.00
2023-04-23T16:51:28.819Z,100128.66
2023-04-23T16:53:59.426Z,100136.91
2023-04-23T16:56:27.498Z,100148.59
2023-04-23T16:58:54.914Z,100142.00
2023-04-23T17:01:22.625Z,100140.34
2023-04-23T17:03:50.352Z,100143.97
2023-04-23T17:06:26.416Z,100144.56
2023-04-23T17:08:55.124Z,100149.09
2023-04-23T17:11:23.196Z,100155.50
2023-04-23T17:13:54.318Z,100159.88
2023-04-23T17:16:22.300Z,100161.81
2023-04-23T17:18:49.841Z,100163.69
2023-04-23T17:21:17.485Z,100168.06
2023-04-23T17:23:45.818Z,100161.94
2023-04-23T17:26:13.533Z,100172.53
2023-04-23T17:28:40.956Z,100174.28
2023-04-23T17:31:08.998Z,100172.59
2023-04-23T17:33:36.472Z,100168.94
2023-04-23T17:36:04.515Z,100175.19
2023-04-23T17:38:32.066Z,100173.31
2023-04-23T17:40:59.750Z,100182.34
2023-04-23T17:43:27.664Z,100179.59
2023-04-23T17:45:55.285Z,100180.72
2023-04-23T17:48:23.407Z,100182.69
2023-04-23T17:50:51.291Z,100180.16
2023-04-23T17:53:18.752Z,100194.19
2023-04-23T17:55:46.486Z,100191.56
2023-04-23T17:58:14.317Z,100198.72
2023-04-23T18:00:43.162Z,100197.19
2023-04-23T18:03:14.647Z,100207.13
2023-04-23T18:05:42.468Z,100211.59
2023-04-23T18:08:10.036Z,100210.09
2023-04-23T18:10:37.554Z,100217.81
2023-04-23T18:13:05.399Z,100214.44
2023-04-23T18:15:33.128Z,100219.81
2023-04-23T18:18:00.921Z,100231.34
2023-04-23T18:20:28.494Z,100246.25
2023-04-23T18:22:55.948Z,100249.63
2023-04-23T18:25:25.439Z,100248.91
2023-04-23T18:27:53.147Z,100251.50
2023-04-23T18:30:23.521Z,100248.03
2023-04-23T18:33:00.919Z,100258.56
2023-04-23T18:35:28.631Z,100267.34
2023-04-23T18:38:04.709Z,100269.19
2023-04-23T18:40:32.566Z,100266.50
2023-04-23T18:43:00.029Z,100277.19
2023-04-23T18:45:27.635Z,100279.88
2023-04-23T18:48:06.307Z,100281.78
2023-04-23T18:50:44.549Z,100287.91
2023-04-23T18:53:12.064Z,100288.97
2023-04-23T18:55:39.434Z,100292.69
2023-04-23T18:58:07.098Z,100297.19
2023-04-23T19:00:35.010Z,100300.78
2023-04-23T19:03:06.591Z,100310.50
2023-04-23T19:05:37.015Z,100312.38
2023-04-23T19:08:04.640Z,100317.69
2023-04-23T19:10:32.093Z,100319.44
2023-04-23T19:12:59.575Z,100322.94
2023-04-23T19:15:27.110Z,100334.31
2023-04-23T19:17:54.732Z,100331.78
2023-04-23T19:20:22.344Z,100336.16
2023-04-23T19:22:49.916Z,100331.81
2023-04-23T19:25:17.642Z,100331.00
2023-04-23T19:27:45.081Z,100340.59
2023-04-23T19:30:12.805Z,100343.25
2023-04-23T19:32:40.509Z,100350.25
2023-04-23T19:35:08.408Z,100352.88
2023-04-23T19:37:37.055Z,100365.94
2023-04-23T19:40:05.041Z,100369.44
2023-04-23T19:42:32.783Z,100370.31
2023-04-23T19:45:00.253Z,100378.16
2023-04-23T19:47:27.744Z,100381.66
2023-04-23T19:49:55.915Z,100393.84
2023-04-23T19:52:25.468Z,100403.44
2023-04-23T19:54:53.188Z,100410.41
2023-04-23T19:57:22.308Z,100415.66
2023-04-23T19:59:49.841Z,100410.38
2023-04-23T20:02:17.404Z,100419.13
2023-04-23T20:04:45.903Z,100426.13
2023-04-23T20:07:13.523Z,100436.59
2023-04-23T20:09:44.467Z,100431.34
2023-04-23T20:12:13.760Z,100429.56
2023-04-23T20:14:42.585Z,100433.91
2023-04-23T20:17:10.294Z,100442.66
2023-04-23T20:19:38.542Z,100443.53
2023-04-23T20:22:06.969Z,100446.19
2023-04-23T20:24:35.833Z,100447.09
2023-04-23T20:27:03.430Z,100446.25
2023-04-23T20:29:30.912Z,100446.22
2023-04-23T20:31:58.598Z,100443.63
2023-04-23T20:34:26.286Z,100449.72
2023-04-23T20:36:53.843Z,100457.56
2023-04-23T20:39:24.398Z,100457.53
2023-04-23T20:41:52.623Z,100473.25
2023-04-23T20:44:23.326Z,100473.25
2023-04-23T20:46:51.490Z,100475.91
2023-04-23T20:49:19.040Z,100489.00
2023-04-23T20:51:46.753Z,100496.84
2023-04-23T20:54:14.255Z,100501.22
2023-04-23T20:56:41.768Z,100509.06
2023-04-23T20:59:09.316Z,100505.59
2023-04-23T21:01:37.906Z,100515.19
2023-04-23T21:04:05.530Z,100516.94
2023-04-23T21:06:33.509Z,100520.47
2023-04-23T21:09:01.017Z,100528.28
2023-04-23T21:11:29.353Z,100533.53
2023-04-23T21:13:59.457Z,100527.44
2023-04-23T21:16:28.203Z,100544.00
2023-04-23T21:18:55.824Z,100535.28
2023-04-23T21:21:27.977Z,100529.16
2023-04-23T21:23:56.680Z,100529.19
2023-04-23T21:26:24.332Z,100532.66
2023-04-23T21:28:52.033Z,100540.50
2023-04-23T21:31:47.098Z,100544.88
2023-04-23T21:34:15.591Z,100549.22
2023-04-23T21:36:46.680Z,100547.47
2023-04-23T21:39:14.637Z,100548.34
2023-04-23T21:41:42.410Z,100550.97
2023-04-23T21:44:10.057Z,100545.75
2023-04-23T21:46:37.580Z,100541.38
2023-04-23T21:49:05.288Z,100544.88
2023-04-23T21:51:37.121Z,100538.75
2023-04-23T21:54:08.167Z,100539.63
2023-04-23T21:56:35.941Z,100537.91
2023-04-23T21:59:03.479Z,100541.38
2023-04-23T22:01:32.451Z,100545.75
2023-04-23T22:04:01.812Z,100539.63
2023-04-23T22:06:29.933Z,100532.66
2023-04-23T22:08:57.924Z,100545.69
2023-04-23T22:11:26.173Z,100549.19
2023-04-23T22:13:53.902Z,100548.31
2023-04-23T22:16:28.811Z,100554.41
2023-04-23T22:18:57.788Z,100547.41
2023-04-23T22:21:25.481Z,100550.91
2023-04-23T22:23:53.098Z,100546.53
2023-04-23T22:26:21.767Z,100550.91
2023-04-23T22:28:49.295Z,100549.16
2023-04-23T22:31:17.486Z,100558.75
2023-04-23T22:33:45.470Z,100565.72
2023-04-23T22:36:14.134Z,100557.88
2023-04-23T22:38:41.794Z,100556.97
2023-04-23T22:41:09.222Z,100560.44
2023-04-23T22:43:36.722Z,100566.56
2023-04-23T22:46:04.262Z,100563.09
2023-04-23T22:48:31.918Z,100566.59
2023-04-23T22:50:59.411Z,100567.47
2023-04-23T22:53:26.932Z,100574.44
2023-04-23T22:55:54.211Z,100571.78
2023-04-23T22:58:21.632Z,100576.13
2023-04-23T23:00:49.106Z,100588.34
2023-04-23T23:03:16.852Z,100586.59
2023-04-23T23:05:44.543Z,100583.09
2023-04-23T23:08:12.144Z,100589.22
2023-04-23T23:10:39.636Z,100592.72
2023-04-23T23:13:07.310Z,100593.56
2023-04-23T23:15:34.852Z,100592.72
2023-04-23T23:18:02.467Z,100585.75
2023-04-23T23:20:29.979Z,100595.34
2023-04-23T23:22:57.573Z,100601.41
2023-04-23T23:25:24.965Z,100599.66
2023-04-23T23:27:52.961Z,100597.91
2023-04-23T23:30:20.678Z,100598.75
2023-04-23T23:32:48.548Z,100605.75
2023-04-23T23:35:16.002Z,100606.59
2023-04-23T23:37:43.527Z,100611.78
2023-04-23T23:40:11.462Z,100610.94
2023-04-23T23:42:38.999Z,100607.47
2023-04-23T23:45:07.177Z,100615.31
2023-04-23T23:47:34.664Z,100610.97
2023-04-23T23:50:02.175Z,100621.41
2023-04-23T23:52:29.752Z,100624.00
2023-04-23T23:54:57.109Z,100621.41
2023-04-23T23:57:24.573Z,100617.94
2023-04-23T23:59:52.206Z,100620.53
